sensor_id;sensor_type;location;lat;lon;timestamp;pressure;altitude;pressure_sealevel;temperature;humidity
36692;BME280;22678;52.052;4.242;2022-12-29T00:01:31;99852.16;;;10.32;100.00
36692;BME280;22678;52.052;4.242;2022-12-29T00:03:57;99824.50;;;10.16;100.00
36692;BME280;22678;52.052;4.242;2022-12-29T00:06:22;99837.31;;;10.30;100.00
36692;BME280;22678;52.052;4.242;2022-12-29T00:08:47;99826.03;;;10.26;100.00
36692;BME280;22678;52.052;4.242;2022-12-29T00:11:16;99816.41;;;10.25;100.00
36692;BME280;22678;52.052;4.242;2022-12-29T00:13:41;99810.22;;;10.28;100.00
36692;BME280;22678;52.052;4.242;2022-12-29T00:16:26;99799.78;;;10.25;100.00
36692;BME280;22678;52.052;4.242;2022-12-29T00:18:51;99800.53;;;10.30;100.00
36692;BME280;22678;52.052;4.242;2022-12-29T00:21:19;99799.66;;;10.29;100.00
36692;BME280;22678;52.052;4.242;2022-12-29T00:24:03;99790.81;;;10.32;100.00
36692;BME280;22678;52.052;4.242;2022-12-29T00:26:49;99792.56;;;10.34;100.00
36692;BME280;22678;52.052;4.242;2022-12-29T00:29:33;99792.56;;;10.33;100.00
36692;BME280;22678;52.052;4.242;2022-12-29T00:32:17;99781.16;;;10.36;100.00
36692;BME280;22678;52.052;4.242;2022-12-29T00:35:01;99804.81;;;10.36;100.00
36692;BME280;22678;52.052;4.242;2022-12-29T00:37:43;99772.41;;;10.35;100.00
36692;BME280;22678;52.052;4.242;2022-12-29T00:40:29;99780.19;;;10.40;100.00
36692;BME280;22678;52.052;4.242;2022-12-29T00:43:12;99777.47;;;10.43;100.00
36692;BME280;22678;52.052;4.242;2022-12-29T00:45:56;99775.56;;;10.48;100.00
36692;BME280;22678;52.052;4.242;2022-12-29T00:48:21;99785.28;;;10.46;100.00
36692;BME280;22678;52.052;4.242;2022-12-29T00:51:06;99786.16;;;10.45;100.00
36692;BME280;22678;52.052;4.242;2022-12-29T00:53:32;99785.34;;;10.43;100.00
36692;BME280;22678;52.052;4.242;2022-12-29T00:55:57;99792.47;;;10.38;100.00
36692;BME280;22678;52.052;4.242;2022-12-29T00:58:23;99783.63;;;10.42;100.00
36692;BME280;22678;52.052;4.242;2022-12-29T01:00:48;99781.09;;;10.37;100.00
36692;BME280;22678;52.052;4.242;2022-12-29T01:03:13;99775.00;;;10.37;100.00
36692;BME280;22678;52.052;4.242;2022-12-29T01:05:38;99778.56;;;10.32;100.00
36692;BME280;22678;52.052;4.242;2022-12-29T01:08:04;99804.72;;;10.39;100.00
36692;BME280;22678;52.052;4.242;2022-12-29T01:10:29;99792.56;;;10.34;100.00
36692;BME280;22678;52.052;4.242;2022-12-29T01:12:55;99805.69;;;10.33;100.00
36692;BME280;22678;52.052;4.242;2022-12-29T01:15:20;99813.63;;;10.31;100.00
36692;BME280;22678;52.052;4.242;2022-12-29T01:17:46;99818.75;;;10.38;100.00
36692;BME280;22678;52.052;4.242;2022-12-29T01:20:12;99791.72;;;10.32;100.00
36692;BME280;22678;52.052;4.242;2022-12-29T01:22:37;99814.34;;;10.40;100.00
36692;BME280;22678;52.052;4.242;2022-12-29T01:25:03;99790.78;;;10.37;100.00
36692;BME280;22678;52.052;4.242;2022-12-29T01:27:29;99818.84;;;10.34;100.00
36692;BME280;22678;52.052;4.242;2022-12-29T01:29:54;99808.28;;;10.36;100.00
36692;BME280;22678;52.052;4.242;2022-12-29T01:32:19;99787.31;;;10.33;100.00
36692;BME280;22678;52.052;4.242;2022-12-29T01:34:45;99808.44;;;10.28;100.00
36692;BME280;22678;52.052;4.242;2022-12-29T01:37:11;99808.66;;;10.19;100.00
36692;BME280;22678;52.052;4.242;2022-12-29T01:39:36;99798.00;;;10.25;100.00
36692;BME280;22678;52.052;4.242;2022-12-29T01:42:01;99783.06;;;10.27;100.00
36692;BME280;22678;52.052;4.242;2022-12-29T01:47:38;99792.59;;;10.31;100.00
36692;BME280;22678;52.052;4.242;2022-12-29T01:50:19;99808.31;;;10.34;100.00
36692;BME280;22678;52.052;4.242;2022-12-29T01:53:24;99809.22;;;10.35;100.00
36692;BME280;22678;52.052;4.242;2022-12-29T01:55:54;99810.06;;;10.36;99.99
36692;BME280;22678;52.052;4.242;2022-12-29T01:58:22;99811.72;;;10.40;99.23
36692;BME280;22678;52.052;4.242;2022-12-29T02:00:49;99804.81;;;10.36;98.57
36692;BME280;22678;52.052;4.242;2022-12-29T02:03:15;99773.59;;;10.20;98.80
36692;BME280;22678;52.052;4.242;2022-12-29T02:08:13;99795.34;;;10.27;98.79
36692;BME280;22678;52.052;4.242;2022-12-29T02:10:39;99796.22;;;10.26;98.76
36692;BME280;22678;52.052;4.242;2022-12-29T02:13:05;99824.22;;;10.28;98.54
36692;BME280;22678;52.052;4.242;2022-12-29T02:20:50;99799.09;;;10.16;98.59
36692;BME280;22678;52.052;4.242;2022-12-29T02:23:47;99784.16;;;10.17;98.19
36692;BME280;22678;52.052;4.242;2022-12-29T02:32:03;99792.59;;;9.94;98.02
36692;BME280;22678;52.052;4.242;2022-12-29T02:34:59;99803.41;;;9.80;98.34
36692;BME280;22678;52.052;4.242;2022-12-29T02:37:43;99806.91;;;9.80;98.33
36692;BME280;22678;52.052;4.242;2022-12-29T02:40:31;99793.84;;;9.76;98.39
36692;BME280;22678;52.052;4.242;2022-12-29T02:48:46;99799.44;;;9.60;99.60
36692;BME280;22678;52.052;4.242;2022-12-29T02:51:21;99789.78;;;9.61;99.82
36692;BME280;22678;52.052;4.242;2022-12-29T02:53:48;99785.44;;;9.61;100.00
36692;BME280;22678;52.052;4.242;2022-12-29T02:56:34;99788.94;;;9.60;100.00
36692;BME280;22678;52.052;4.242;2022-12-29T02:58:59;99799.31;;;9.67;100.00
36692;BME280;22678;52.052;4.242;2022-12-29T03:07:18;99804.50;;;9.70;99.00
36692;BME280;22678;52.052;4.242;2022-12-29T03:10:04;99788.81;;;9.67;98.62
36692;BME280;22678;52.052;4.242;2022-12-29T03:13:02;99801.03;;;9.68;98.65
36692;BME280;22678;52.052;4.242;2022-12-29T03:16:05;99788.72;;;9.70;99.12
36692;BME280;22678;52.052;4.242;2022-12-29T03:21:31;99794.06;;;9.67;99.31
36692;BME280;22678;52.052;4.242;2022-12-29T03:24:19;99793.31;;;9.61;99.30
36692;BME280;22678;52.052;4.242;2022-12-29T03:26:47;99780.22;;;9.58;99.16
36692;BME280;22678;52.052;4.242;2022-12-29T03:29:15;99775.03;;;9.55;98.54
36692;BME280;22678;52.052;4.242;2022-12-29T03:31:43;99778.44;;;9.60;98.63
36692;BME280;22678;52.052;4.242;2022-12-29T03:34:11;99792.44;;;9.59;98.65
36692;BME280;22678;52.052;4.242;2022-12-29T03:36:48;99769.72;;;9.58;98.39
36692;BME280;22678;52.052;4.242;2022-12-29T03:39:16;99785.28;;;9.68;98.15
36692;BME280;22678;52.052;4.242;2022-12-29T03:41:44;99769.56;;;9.66;97.78
36692;BME280;22678;52.052;4.242;2022-12-29T03:44:10;99775.66;;;9.68;97.57
36692;BME280;22678;52.052;4.242;2022-12-29T03:46:37;99752.84;;;9.72;97.43
36692;BME280;22678;52.052;4.242;2022-12-29T03:49:02;99773.84;;;9.72;96.90
36692;BME280;22678;52.052;4.242;2022-12-29T03:51:27;99765.81;;;9.78;95.98
36692;BME280;22678;52.052;4.242;2022-12-29T03:53:53;99777.91;;;9.85;95.21
36692;BME280;22678;52.052;4.242;2022-12-29T03:56:18;99787.56;;;9.83;94.56
36692;BME280;22678;52.052;4.242;2022-12-29T03:58:43;99787.59;;;9.81;93.62
36692;BME280;22678;52.052;4.242;2022-12-29T04:01:09;99784.13;;;9.81;93.19
36692;BME280;22678;52.052;4.242;2022-12-29T04:03:34;99799.03;;;9.79;92.83
36692;BME280;22678;52.052;4.242;2022-12-29T04:05:59;99787.81;;;9.72;92.72
36692;BME280;22678;52.052;4.242;2022-12-29T04:08:25;99800.78;;;9.80;91.83
36692;BME280;22678;52.052;4.242;2022-12-29T04:10:50;99800.06;;;9.73;91.45
36692;BME280;22678;52.052;4.242;2022-12-29T04:13:16;99774.84;;;9.64;91.42
36692;BME280;22678;52.052;4.242;2022-12-29T04:15:45;99804.59;;;9.65;91.23
36692;BME280;22678;52.052;4.242;2022-12-29T04:18:11;99783.69;;;9.60;91.30
36692;BME280;22678;52.052;4.242;2022-12-29T04:20:36;99781.94;;;9.59;91.48
36692;BME280;22678;52.052;4.242;2022-12-29T04:23:20;99806.63;;;9.51;91.76
36692;BME280;22678;52.052;4.242;2022-12-29T04:25:46;99811.91;;;9.49;92.17
36692;BME280;22678;52.052;4.242;2022-12-29T04:28:12;99799.75;;;9.45;92.68
36692;BME280;22678;52.052;4.242;2022-12-29T04:30:38;99804.00;;;9.51;93.23
36692;BME280;22678;52.052;4.242;2022-12-29T04:33:03;99817.22;;;9.46;93.52
36692;BME280;22678;52.052;4.242;2022-12-29T04:35:28;99797.09;;;9.46;93.57
36692;BME280;22678;52.052;4.242;2022-12-29T04:37:54;99810.25;;;9.45;94.69
36692;BME280;22678;52.052;4.242;2022-12-29T04:40:19;99814.63;;;9.44;95.37
36692;BME280;22678;52.052;4.242;2022-12-29T04:42:44;99798.09;;;9.41;95.62
36692;BME280;22678;52.052;4.242;2022-12-29T04:45:10;99813.00;;;9.39;95.83
36692;BME280;22678;52.052;4.242;2022-12-29T04:47:35;99812.94;;;9.42;96.20
36692;BME280;22678;52.052;4.242;2022-12-29T04:50:01;99815.56;;;9.42;96.27
36692;BME280;22678;52.052;4.242;2022-12-29T04:52:26;99819.88;;;9.44;96.04
36692;BME280;22678;52.052;4.242;2022-12-29T04:54:51;99819.19;;;9.35;96.23
36692;BME280;22678;52.052;4.242;2022-12-29T04:57:17;99803.50;;;9.32;96.22
36692;BME280;22678;52.052;4.242;2022-12-29T04:59:42;99838.41;;;9.37;96.48
36692;BME280;22678;52.052;4.242;2022-12-29T05:02:07;99829.63;;;9.38;96.15
36692;BME280;22678;52.052;4.242;2022-12-29T05:04:33;99828.75;;;9.37;95.86
36692;BME280;22678;52.052;4.242;2022-12-29T05:06:58;99840.91;;;9.43;95.69
36692;BME280;22678;52.052;4.242;2022-12-29T05:09:23;99834.84;;;9.41;95.37
36692;BME280;22678;52.052;4.242;2022-12-29T05:11:49;99841.72;;;9.45;95.16
36692;BME280;22678;52.052;4.242;2022-12-29T05:14:14;99844.44;;;9.40;94.83
36692;BME280;22678;52.052;4.242;2022-12-29T05:16:40;99826.22;;;9.33;95.08
36692;BME280;22678;52.052;4.242;2022-12-29T05:19:05;99835.91;;;9.31;95.07
36692;BME280;22678;52.052;4.242;2022-12-29T05:21:30;99826.19;;;9.34;95.70
36692;BME280;22678;52.052;4.242;2022-12-29T05:23:56;99833.19;;;9.35;95.73
36692;BME280;22678;52.052;4.242;2022-12-29T05:26:21;99832.25;;;9.38;95.75
36692;BME280;22678;52.052;4.242;2022-12-29T05:28:46;99841.91;;;9.36;95.92
36692;BME280;22678;52.052;4.242;2022-12-29T05:31:11;99850.59;;;9.41;96.07
36692;BME280;22678;52.052;4.242;2022-12-29T05:33:37;99839.22;;;9.39;95.80
36692;BME280;22678;52.052;4.242;2022-12-29T05:36:07;99861.94;;;9.41;96.05
36692;BME280;22678;52.052;4.242;2022-12-29T05:38:32;99856.75;;;9.38;96.04
36692;BME280;22678;52.052;4.242;2022-12-29T05:40:58;99854.09;;;9.40;95.92
36692;BME280;22678;52.052;4.242;2022-12-29T05:43:23;99843.72;;;9.34;95.86
36692;BME280;22678;52.052;4.242;2022-12-29T05:45:49;99862.06;;;9.35;95.84
36692;BME280;22678;52.052;4.242;2022-12-29T05:48:15;99860.94;;;9.47;95.22
36692;BME280;22678;52.052;4.242;2022-12-29T05:50:40;99859.31;;;9.41;95.24
36692;BME280;22678;52.052;4.242;2022-12-29T05:53:05;99867.16;;;9.43;95.37
36692;BME280;22678;52.052;4.242;2022-12-29T05:55:31;99863.72;;;9.39;95.58
36692;BME280;22678;52.052;4.242;2022-12-29T05:57:56;99871.59;;;9.38;95.97
36692;BME280;22678;52.052;4.242;2022-12-29T06:00:22;99867.41;;;9.29;95.97
36692;BME280;22678;52.052;4.242;2022-12-29T06:02:47;99874.28;;;9.35;95.72
36692;BME280;22678;52.052;4.242;2022-12-29T06:05:12;99863.88;;;9.30;95.42
36692;BME280;22678;52.052;4.242;2022-12-29T06:07:38;99856.88;;;9.32;94.80
36692;BME280;22678;52.052;4.242;2022-12-29T06:10:04;99864.78;;;9.31;94.38
36692;BME280;22678;52.052;4.242;2022-12-29T06:12:30;99883.06;;;9.34;94.28
36692;BME280;22678;52.052;4.242;2022-12-29T06:14:55;99878.66;;;9.36;93.60
36692;BME280;22678;52.052;4.242;2022-12-29T06:17:20;99883.97;;;9.33;93.59
36692;BME280;22678;52.052;4.242;2022-12-29T06:19:46;99868.28;;;9.29;93.38
36692;BME280;22678;52.052;4.242;2022-12-29T06:22:11;99842.28;;;9.16;93.27
36692;BME280;22678;52.052;4.242;2022-12-29T06:24:37;99871.84;;;9.25;92.78
36692;BME280;22678;52.052;4.242;2022-12-29T06:27:03;99873.63;;;9.23;92.33
36692;BME280;22678;52.052;4.242;2022-12-29T06:29:28;99858.03;;;9.14;91.93
36692;BME280;22678;52.052;4.242;2022-12-29T06:31:53;99879.84;;;9.19;91.08
36692;BME280;22678;52.052;4.242;2022-12-29T06:34:23;99875.41;;;9.21;90.57
36692;BME280;22678;52.052;4.242;2022-12-29T06:36:48;99878.88;;;9.23;89.53
36692;BME280;22678;52.052;4.242;2022-12-29T06:39:14;99851.81;;;9.21;89.13
36692;BME280;22678;52.052;4.242;2022-12-29T06:41:39;99856.22;;;9.19;88.96
36692;BME280;22678;52.052;4.242;2022-12-29T06:44:04;99851.81;;;9.20;88.93
36692;BME280;22678;52.052;4.242;2022-12-29T06:46:30;99862.25;;;9.23;89.13
36692;BME280;22678;52.052;4.242;2022-12-29T06:48:55;99890.28;;;9.21;89.07
36692;BME280;22678;52.052;4.242;2022-12-29T06:51:20;99873.66;;;9.22;89.42
36692;BME280;22678;52.052;4.242;2022-12-29T06:53:46;99876.44;;;9.12;89.42
36692;BME280;22678;52.052;4.242;2022-12-29T06:56:11;99886.00;;;9.15;89.38
36692;BME280;22678;52.052;4.242;2022-12-29T06:58:36;99888.63;;;9.15;89.54
36692;BME280;22678;52.052;4.242;2022-12-29T07:01:01;99891.25;;;9.15;90.03
36692;BME280;22678;52.052;4.242;2022-12-29T07:03:27;99901.81;;;9.12;90.00
36692;BME280;22678;52.052;4.242;2022-12-29T07:05:52;99894.75;;;9.17;90.05
36692;BME280;22678;52.052;4.242;2022-12-29T07:08:19;99887.75;;;9.16;89.84
36692;BME280;22678;52.052;4.242;2022-12-29T07:10:45;99904.22;;;9.23;89.53
36692;BME280;22678;52.052;4.242;2022-12-29T07:13:10;99887.63;;;9.24;89.08
36692;BME280;22678;52.052;4.242;2022-12-29T07:15:37;99883.19;;;9.26;89.42
36692;BME280;22678;52.052;4.242;2022-12-29T07:18:02;99884.13;;;9.23;88.99
36692;BME280;22678;52.052;4.242;2022-12-29T07:20:29;99891.06;;;9.26;88.81
36692;BME280;22678;52.052;4.242;2022-12-29T07:22:54;99888.41;;;9.29;88.69
36692;BME280;22678;52.052;4.242;2022-12-29T07:25:20;99876.22;;;9.25;88.74
36692;BME280;22678;52.052;4.242;2022-12-29T07:27:45;99887.53;;;9.28;88.53
36692;BME280;22678;52.052;4.242;2022-12-29T07:30:11;99881.50;;;9.23;88.43
36692;BME280;22678;52.052;4.242;2022-12-29T07:32:36;99864.81;;;9.26;88.37
36692;BME280;22678;52.052;4.242;2022-12-29T07:35:02;99897.91;;;9.35;88.35
36692;BME280;22678;52.052;4.242;2022-12-29T07:37:27;99872.69;;;9.26;88.23
36692;BME280;22678;52.052;4.242;2022-12-29T07:39:53;99887.53;;;9.28;88.26
36692;BME280;22678;52.052;4.242;2022-12-29T07:42:18;99895.38;;;9.30;88.55
36692;BME280;22678;52.052;4.242;2022-12-29T07:44:43;99885.69;;;9.34;88.62
36692;BME280;22678;52.052;4.242;2022-12-29T07:47:09;99883.97;;;9.33;88.86
36692;BME280;22678;52.052;4.242;2022-12-29T07:49:34;99881.41;;;9.29;89.10
36692;BME280;22678;52.052;4.242;2022-12-29T07:52:00;99891.88;;;9.29;89.07
36692;BME280;22678;52.052;4.242;2022-12-29T07:54:25;99894.44;;;9.33;89.20
36692;BME280;22678;52.052;4.242;2022-12-29T07:56:51;99887.59;;;9.25;89.32
36692;BME280;22678;52.052;4.242;2022-12-29T07:59:16;99893.72;;;9.24;89.43
36692;BME280;22678;52.052;4.242;2022-12-29T08:01:41;99891.09;;;9.24;89.43
36692;BME280;22678;52.052;4.242;2022-12-29T08:04:07;99901.59;;;9.24;89.43
36692;BME280;22678;52.052;4.242;2022-12-29T08:06:32;99893.81;;;9.20;89.73
36692;BME280;22678;52.052;4.242;2022-12-29T08:08:58;99912.84;;;9.31;89.87
36692;BME280;22678;52.052;4.242;2022-12-29T08:11:23;99905.06;;;9.26;90.09
36692;BME280;22678;52.052;4.242;2022-12-29T08:13:49;99921.63;;;9.28;90.42
36692;BME280;22678;52.052;4.242;2022-12-29T08:16:14;99933.94;;;9.25;90.75
36692;BME280;22678;52.052;4.242;2022-12-29T08:18:39;99926.09;;;9.23;91.40
36692;BME280;22678;52.052;4.242;2022-12-29T08:21:05;99944.47;;;9.23;91.89
36692;BME280;22678;52.052;4.242;2022-12-29T08:23:31;99944.56;;;9.19;92.17
36692;BME280;22678;52.052;4.242;2022-12-29T08:25:58;99960.31;;;9.16;92.71
36692;BME280;22678;52.052;4.242;2022-12-29T08:28:23;99936.03;;;9.04;93.51
36692;BME280;22678;52.052;4.242;2022-12-29T08:30:48;99977.13;;;9.04;94.17
36692;BME280;22678;52.052;4.242;2022-12-29T08:33:14;99943.88;;;9.06;94.58
36692;BME280;22678;52.052;4.242;2022-12-29T08:35:39;99951.00;;;8.98;95.76
36692;BME280;22678;52.052;4.242;2022-12-29T08:38:04;99988.53;;;9.01;96.65
36692;BME280;22678;52.052;4.242;2022-12-29T08:40:30;99983.31;;;9.01;97.00
36692;BME280;22678;52.052;4.242;2022-12-29T08:43:19;99983.31;;;9.00;97.24
36692;BME280;22678;52.052;4.242;2022-12-29T08:45:44;99970.47;;;8.81;97.92
36692;BME280;22678;52.052;4.242;2022-12-29T08:48:09;99998.25;;;8.94;98.25
36692;BME280;22678;52.052;4.242;2022-12-29T08:50:35;99983.41;;;8.92;98.58
36692;BME280;22678;52.052;4.242;2022-12-29T08:53:00;99986.09;;;8.89;99.20
36692;BME280;22678;52.052;4.242;2022-12-29T08:55:25;99984.31;;;8.92;99.22
36692;BME280;22678;52.052;4.242;2022-12-29T08:57:51;100000.91;;;8.91;99.98
36692;BME280;22678;52.052;4.242;2022-12-29T09:00:17;99994.03;;;8.84;100.00
36692;BME280;22678;52.052;4.242;2022-12-29T09:02:42;100000.97;;;8.88;100.00
36692;BME280;22678;52.052;4.242;2022-12-29T09:05:08;100007.97;;;8.89;100.00
36692;BME280;22678;52.052;4.242;2022-12-29T09:07:34;100013.19;;;8.89;100.00
36692;BME280;22678;52.052;4.242;2022-12-29T09:10:00;100020.16;;;8.90;100.00
36692;BME280;22678;52.052;4.242;2022-12-29T09:12:25;100019.31;;;8.88;100.00
36692;BME280;22678;52.052;4.242;2022-12-29T09:14:50;100015.88;;;8.83;100.00
36692;BME280;22678;52.052;4.242;2022-12-29T09:17:16;100034.97;;;8.94;100.00
36692;BME280;22678;52.052;4.242;2022-12-29T09:20:00;100031.50;;;8.92;100.00
36692;BME280;22678;52.052;4.242;2022-12-29T09:22:25;100033.22;;;8.93;100.00
36692;BME280;22678;52.052;4.242;2022-12-29T09:24:50;100043.69;;;8.97;100.00
36692;BME280;22678;52.052;4.242;2022-12-29T09:27:16;100060.13;;;9.08;100.00
36692;BME280;22678;52.052;4.242;2022-12-29T09:29:41;100045.34;;;9.02;100.00
36692;BME280;22678;52.052;4.242;2022-12-29T09:32:06;100041.84;;;9.03;100.00
36692;BME280;22678;52.052;4.242;2022-12-29T09:34:32;100062.66;;;9.12;100.00
36692;BME280;22678;52.052;4.242;2022-12-29T09:36:57;100078.38;;;9.17;100.00
36692;BME280;22678;52.052;4.242;2022-12-29T09:39:24;100085.28;;;9.21;100.00
36692;BME280;22678;52.052;4.242;2022-12-29T09:42:05;100077.34;;;9.24;100.00
36692;BME280;22678;52.052;4.242;2022-12-29T09:47:17;100081.72;;;9.25;100.00
36692;BME280;22678;52.052;4.242;2022-12-29T09:49:49;100102.72;;;9.25;100.00
36692;BME280;22678;52.052;4.242;2022-12-29T09:52:25;100108.84;;;9.24;100.00
36692;BME280;22678;52.052;4.242;2022-12-29T09:54:58;100103.66;;;9.20;100.00
36692;BME280;22678;52.052;4.242;2022-12-29T09:57:40;100118.41;;;9.28;100.00
36692;BME280;22678;52.052;4.242;2022-12-29T10:00:21;100113.22;;;9.25;100.00
36692;BME280;22678;52.052;4.242;2022-12-29T10:02:54;100121.78;;;9.37;100.00
36692;BME280;22678;52.052;4.242;2022-12-29T10:05:47;100137.19;;;9.58;100.00
36692;BME280;22678;52.052;4.242;2022-12-29T10:24:50;100168.31;;;9.83;95.53
36692;BME280;22678;52.052;4.242;2022-12-29T10:27:19;100175.22;;;9.90;95.29
36692;BME280;22678;52.052;4.242;2022-12-29T10:29:50;100177.78;;;9.93;94.08
36692;BME280;22678;52.052;4.242;2022-12-29T10:32:36;100177.72;;;9.98;92.89
36692;BME280;22678;52.052;4.242;2022-12-29T10:35:16;100188.09;;;10.07;91.89
36692;BME280;22678;52.052;4.242;2022-12-29T10:45:47;100213.91;;;10.37;89.13
36692;BME280;22678;52.052;4.242;2022-12-29T10:48:20;100209.38;;;10.45;88.13
36692;BME280;22678;52.052;4.242;2022-12-29T10:50:48;100208.50;;;10.44;86.53
36692;BME280;22678;52.052;4.242;2022-12-29T10:53:21;100219.09;;;10.40;85.20
36692;BME280;22678;52.052;4.242;2022-12-29T10:55:48;100217.59;;;10.25;85.03
36692;BME280;22678;52.052;4.242;2022-12-29T10:58:14;100224.66;;;10.20;85.25
36692;BME280;22678;52.052;4.242;2022-12-29T11:00:41;100222.25;;;10.07;85.62
36692;BME280;22678;52.052;4.242;2022-12-29T11:06:27;100256.63;;;10.48;86.12
36692;BME280;22678;52.052;4.242;2022-12-29T11:09:13;100260.63;;;10.71;84.52
36692;BME280;22678;52.052;4.242;2022-12-29T11:11:41;100276.97;;;10.88;83.04
36692;BME280;22678;52.052;4.242;2022-12-29T11:14:31;100261.16;;;10.90;82.11
36692;BME280;22678;52.052;4.242;2022-12-29T11:17:02;100260.31;;;10.86;81.12
36692;BME280;22678;52.052;4.242;2022-12-29T11:19:31;100271.75;;;10.85;80.45
36692;BME280;22678;52.052;4.242;2022-12-29T11:22:28;100259.19;;;10.99;79.80
36692;BME280;22678;52.052;4.242;2022-12-29T11:24:54;100275.59;;;11.14;78.91
36692;BME280;22678;52.052;4.242;2022-12-29T11:27:23;100274.75;;;11.12;78.08
36692;BME280;22678;52.052;4.242;2022-12-29T11:29:52;100289.66;;;11.11;78.01
36692;BME280;22678;52.052;4.242;2022-12-29T11:32:21;100280.13;;;11.05;78.54
36692;BME280;22678;52.052;4.242;2022-12-29T11:34:48;100290.78;;;10.99;78.59
36692;BME280;22678;52.052;4.242;2022-12-29T11:37:14;100282.97;;;10.95;78.45
36692;BME280;22678;52.052;4.242;2022-12-29T11:40:02;100291.81;;;10.91;78.64
36692;BME280;22678;52.052;4.242;2022-12-29T11:42:36;100269.34;;;10.73;78.74
36692;BME280;22678;52.052;4.242;2022-12-29T11:45:23;100284.91;;;10.83;78.58
36692;BME280;22678;52.052;4.242;2022-12-29T11:47:52;100284.09;;;10.81;78.02
36692;BME280;22678;52.052;4.242;2022-12-29T11:50:22;100300.03;;;10.74;77.30
36692;BME280;22678;52.052;4.242;2022-12-29T11:52:50;100286.19;;;10.62;77.00
36692;BME280;22678;52.052;4.242;2022-12-29T11:55:21;100284.75;;;10.44;77.61
36692;BME280;22678;52.052;4.242;2022-12-29T11:57:50;100291.91;;;10.34;78.10
36692;BME280;22678;52.052;4.242;2022-12-29T12:00:19;100290.16;;;10.30;78.16
36692;BME280;22678;52.052;4.242;2022-12-29T12:05:41;100304.53;;;10.08;79.37
36692;BME280;22678;52.052;4.242;2022-12-29T12:08:22;100302.78;;;10.07;79.83
36692;BME280;22678;52.052;4.242;2022-12-29T12:11:08;100280.22;;;9.93;80.56
36692;BME280;22678;52.052;4.242;2022-12-29T12:14:02;100295.88;;;10.03;81.85
36692;BME280;22678;52.052;4.242;2022-12-29T12:16:40;100301.06;;;10.06;82.53
36692;BME280;22678;52.052;4.242;2022-12-29T12:25:12;100292.34;;;10.04;83.98
36692;BME280;22678;52.052;4.242;2022-12-29T12:28:05;100309.66;;;10.15;83.71
36692;BME280;22678;52.052;4.242;2022-12-29T12:30:39;100321.13;;;10.13;83.17
36692;BME280;22678;52.052;4.242;2022-12-29T12:44:18;100324.78;;;9.99;83.64
36692;BME280;22678;52.052;4.242;2022-12-29T13:01:34;100322.19;;;9.98;84.23
36692;BME280;22678;52.052;4.242;2022-12-29T13:04:46;100329.22;;;9.96;84.41
36692;BME280;22678;52.052;4.242;2022-12-29T13:21:04;100332.72;;;9.95;84.45
36692;BME280;22678;52.052;4.242;2022-12-29T13:26:09;100343.22;;;9.96;85.56
36692;BME280;22678;52.052;4.242;2022-12-29T13:28:56;100333.66;;;9.91;86.05
36692;BME280;22678;52.052;4.242;2022-12-29T13:36:59;100333.66;;;9.91;85.76
36692;BME280;22678;52.052;4.242;2022-12-29T13:39:32;100346.81;;;9.89;85.73
36692;BME280;22678;52.052;4.242;2022-12-29T13:41:58;100356.47;;;9.87;85.91
36692;BME280;22678;52.052;4.242;2022-12-29T13:44:31;100346.91;;;9.81;85.89
36692;BME280;22678;52.052;4.242;2022-12-29T13:47:01;100326.03;;;9.74;86.21
36692;BME280;22678;52.052;4.242;2022-12-29T13:49:28;100336.53;;;9.74;86.93
36692;BME280;22678;52.052;4.242;2022-12-29T13:52:15;100327.78;;;9.75;87.31
36692;BME280;22678;52.052;4.242;2022-12-29T13:54:57;100325.16;;;9.73;87.84
36692;BME280;22678;52.052;4.242;2022-12-29T13:57:51;100322.56;;;9.72;88.18
36692;BME280;22678;52.052;4.242;2022-12-29T14:00:22;100326.94;;;9.70;88.55
36692;BME280;22678;52.052;4.242;2022-12-29T14:05:28;100334.00;;;9.66;88.77
36692;BME280;22678;52.052;4.242;2022-12-29T14:08:00;100321.75;;;9.67;88.83
36692;BME280;22678;52.052;4.242;2022-12-29T14:10:27;100323.50;;;9.66;89.33
36692;BME280;22678;52.052;4.242;2022-12-29T14:13:14;100331.41;;;9.64;89.46
36692;BME280;22678;52.052;4.242;2022-12-29T14:15:54;100317.50;;;9.56;89.67
36692;BME280;22678;52.052;4.242;2022-12-29T14:18:22;100333.19;;;9.61;89.86
36692;BME280;22678;52.052;4.242;2022-12-29T14:21:03;100326.22;;;9.60;89.96
36692;BME280;22678;52.052;4.242;2022-12-29T14:28:33;100347.19;;;9.58;90.25
36692;BME280;22678;52.052;4.242;2022-12-29T14:31:04;100354.19;;;9.59;90.32
36692;BME280;22678;52.052;4.242;2022-12-29T14:33:31;100328.97;;;9.47;90.22
36692;BME280;22678;52.052;4.242;2022-12-29T14:36:35;100335.03;;;9.54;90.46
36692;BME280;22678;52.052;4.242;2022-12-29T14:39:26;100339.41;;;9.52;90.53
36692;BME280;22678;52.052;4.242;2022-12-29T14:42:05;100359.44;;;9.59;90.21
36692;BME280;22678;52.052;4.242;2022-12-29T14:44:32;100368.22;;;9.60;90.03
36692;BME280;22678;52.052;4.242;2022-12-29T14:47:00;100364.66;;;9.62;89.32
36692;BME280;22678;52.052;4.242;2022-12-29T14:49:39;100366.44;;;9.62;88.89
36692;BME280;22678;52.052;4.242;2022-12-29T14:52:13;100387.41;;;9.63;88.49
36692;BME280;22678;52.052;4.242;2022-12-29T14:54:52;100376.94;;;9.60;88.28
36692;BME280;22678;52.052;4.242;2022-12-29T14:58:12;100387.44;;;9.60;87.99
36692;BME280;22678;52.052;4.242;2022-12-29T15:00:35;100389.19;;;9.61;87.41
36692;BME280;22678;52.052;4.242;2022-12-29T15:03:14;100391.84;;;9.60;87.38
36692;BME280;22678;52.052;4.242;2022-12-29T15:08:12;100403.25;;;9.57;87.05
36692;BME280;22678;52.052;4.242;2022-12-29T15:10:48;100387.56;;;9.51;87.00
36692;BME280;22678;52.052;4.242;2022-12-29T15:13:22;100389.34;;;9.47;86.92
36692;BME280;22678;52.052;4.242;2022-12-29T15:15:47;100395.44;;;9.48;87.36
36692;BME280;22678;52.052;4.242;2022-12-29T15:18:18;100384.97;;;9.46;87.25
36692;BME280;22678;52.052;4.242;2022-12-29T15:20:57;100392.88;;;9.42;87.36
36692;BME280;22678;52.052;4.242;2022-12-29T15:23:23;100404.25;;;9.45;87.56
36692;BME280;22678;52.052;4.242;2022-12-29T15:25:58;100406.91;;;9.41;87.32
36692;BME280;22678;52.052;4.242;2022-12-29T15:28:25;100406.88;;;9.44;86.81